createdAt,value
2018-01-27T00:02:16.936Z,57.58
2018-01-27T00:04:44.427Z,46.13
2018-01-27T00:07:11.892Z,57.03
2018-01-27T00:09:39.378Z,53.07
2018-01-27T00:12:06.845Z,51.50
2018-01-27T00:14:34.315Z,53.72
2018-01-27T00:17:01.798Z,52.55
2018-01-27T00:19:29.256Z,57.43
2018-01-27T00:21:56.736Z,56.47
2018-01-27T00:24:24.216Z,55.33
2018-01-27T00:26:51.694Z,60.40
2018-01-27T00:29:19.164Z,58.45
2018-01-27T00:31:46.638Z,59.88
2018-01-27T00:34:14.136Z,56.22
2018-01-27T00:36:41.627Z,60.15
2018-01-27T00:39:09.124Z,80.35
2018-01-27T00:41:36.648Z,64.82
2018-01-27T00:44:04.540Z,58.10
2018-01-27T00:46:32.028Z,61.97
2018-01-27T00:48:59.505Z,68.72
2018-01-27T00:51:27.050Z,66.00
2018-01-27T00:53:54.547Z,65.90
2018-01-27T00:56:22.024Z,76.93
2018-01-27T00:58:49.501Z,77.28
2018-01-27T01:01:16.970Z,73.18
2018-01-27T01:03:44.458Z,76.05
2018-01-27T01:06:11.974Z,76.73
2018-01-27T01:08:39.458Z,72.00
2018-01-27T01:11:06.978Z,65.57
2018-01-27T01:13:34.486Z,60.85
2018-01-27T01:16:02.018Z,75.90
2018-01-27T01:18:29.526Z,70.10
2018-01-27T01:20:57.014Z,81.47
2018-01-27T01:23:25.473Z,82.78
2018-01-27T01:25:52.995Z,74.00
2018-01-27T01:28:20.458Z,87.83
2018-01-27T01:30:47.919Z,75.47
2018-01-27T01:33:15.414Z,78.13
2018-01-27T01:35:42.881Z,88.37
2018-01-27T01:38:10.621Z,75.77
2018-01-27T01:40:38.108Z,73.40
2018-01-27T01:43:11.270Z,70.17
2018-01-27T01:45:38.743Z,85.60
2018-01-27T01:48:06.296Z,76.63
2018-01-27T01:50:33.752Z,80.17
2018-01-27T01:53:01.227Z,77.45
2018-01-27T01:55:28.706Z,86.60
2018-01-27T01:57:56.162Z,94.23
2018-01-27T02:00:23.658Z,101.90
2018-01-27T02:02:51.143Z,91.95
2018-01-27T02:05:18.622Z,100.00
2018-01-27T02:07:46.112Z,106.53
2018-01-27T02:10:13.574Z,111.57
2018-01-27T02:12:41.032Z,113.60
2018-01-27T02:15:08.516Z,111.22
2018-01-27T02:17:35.989Z,134.30
2018-01-27T02:20:03.484Z,121.25
2018-01-27T02:22:30.972Z,126.07
2018-01-27T02:24:58.444Z,129.63
2018-01-27T02:27:25.912Z,140.48
2018-01-27T02:29:53.409Z,135.03
2018-01-27T02:32:20.868Z,128.80
2018-01-27T02:34:48.346Z,145.07
2018-01-27T02:37:15.834Z,139.17
2018-01-27T02:39:43.306Z,123.53
2018-01-27T02:42:10.806Z,130.70
2018-01-27T02:44:38.311Z,128.53
2018-01-27T02:47:05.779Z,120.97
2018-01-27T02:49:33.260Z,127.87
2018-01-27T02:52:00.803Z,134.32
2018-01-27T02:54:28.296Z,134.23
2018-01-27T02:56:55.783Z,140.20
2018-01-27T02:59:23.281Z,147.48
2018-01-27T03:01:50.782Z,127.93
2018-01-27T03:04:18.252Z,128.50
2018-01-27T03:06:45.759Z,122.05
2018-01-27T03:09:13.236Z,121.20
2018-01-27T03:11:40.730Z,134.18
2018-01-27T03:14:08.331Z,113.50
2018-01-27T03:16:35.835Z,103.22
2018-01-27T03:19:03.762Z,94.68
2018-01-27T03:21:31.268Z,112.28
2018-01-27T03:23:58.759Z,95.80
2018-01-27T03:26:26.229Z,113.03
2018-01-27T03:28:53.742Z,110.18
2018-01-27T03:31:21.215Z,122.32
2018-01-27T03:33:48.685Z,127.53
2018-01-27T03:36:16.403Z,144.10
2018-01-27T03:38:43.932Z,157.48
2018-01-27T03:41:11.616Z,140.62
2018-01-27T03:43:39.153Z,141.10
2018-01-27T03:46:06.680Z,169.30
2018-01-27T03:48:34.171Z,144.07
2018-01-27T03:51:01.656Z,166.80
2018-01-27T03:53:29.104Z,167.37
2018-01-27T03:55:56.608Z,162.98
2018-01-27T03:58:24.122Z,163.68
2018-01-27T04:00:51.650Z,152.68
2018-01-27T04:03:19.138Z,154.52
2018-01-27T04:05:46.642Z,133.45
2018-01-27T04:08:14.130Z,117.95
2018-01-27T04:10:41.619Z,117.28
2018-01-27T04:13:10.867Z,156.00
2018-01-27T04:15:38.340Z,166.50
2018-01-27T04:18:05.846Z,129.52
2018-01-27T04:20:33.352Z,133.15
2018-01-27T04:23:00.830Z,138.40
2018-01-27T04:25:28.296Z,128.70
2018-01-27T04:27:55.794Z,129.48
2018-01-27T04:30:23.294Z,114.28
2018-01-27T04:32:50.769Z,137.20
2018-01-27T04:35:18.339Z,130.05
2018-01-27T04:37:45.810Z,99.50
2018-01-27T04:40:13.288Z,116.28
2018-01-27T04:42:40.778Z,97.60
2018-01-27T04:45:08.248Z,106.50
2018-01-27T04:47:35.717Z,112.68
2018-01-27T04:50:03.218Z,121.22
2018-01-27T04:52:30.693Z,132.48
2018-01-27T04:54:58.194Z,119.85
2018-01-27T04:57:25.692Z,110.82
2018-01-27T04:59:53.175Z,120.85
2018-01-27T05:02:20.644Z,126.70
2018-01-27T05:04:48.151Z,122.65
2018-01-27T05:07:15.637Z,119.90
2018-01-27T05:09:43.096Z,109.03
2018-01-27T05:12:10.590Z,113.30
2018-01-27T05:14:38.049Z,130.27
2018-01-27T05:17:05.534Z,128.77
2018-01-27T05:19:33.004Z,104.15
2018-01-27T05:22:00.482Z,120.43
2018-01-27T05:24:27.967Z,127.03
2018-01-27T05:26:55.444Z,120.55
2018-01-27T05:29:22.923Z,128.48
2018-01-27T05:31:50.407Z,124.62
2018-01-27T05:34:17.893Z,120.47
2018-01-27T05:36:45.377Z,130.60
2018-01-27T05:39:12.837Z,125.00
2018-01-27T05:41:40.340Z,132.45
2018-01-27T05:44:07.803Z,119.37
2018-01-27T05:46:35.287Z,128.02
2018-01-27T05:49:02.787Z,114.07
2018-01-27T05:51:30.255Z,120.85
2018-01-27T05:53:57.727Z,108.30
2018-01-27T05:56:25.210Z,107.70
2018-01-27T05:58:52.667Z,108.00
2018-01-27T06:01:20.144Z,100.30
2018-01-27T06:03:47.631Z,101.60
2018-01-27T06:06:15.088Z,99.03
2018-01-27T06:08:42.553Z,101.93
2018-01-27T06:11:10.042Z,97.50
2018-01-27T06:13:37.513Z,116.35
2018-01-27T06:16:04.980Z,116.53
2018-01-27T06:18:32.487Z,127.12
2018-01-27T06:20:59.975Z,122.68
2018-01-27T06:23:27.444Z,133.20
2018-01-27T06:25:54.932Z,120.53
2018-01-27T06:28:22.425Z,134.35
2018-01-27T06:30:49.888Z,134.25
2018-01-27T06:33:17.368Z,133.30
2018-01-27T06:35:44.858Z,159.75
2018-01-27T06:38:12.328Z,151.18
2018-01-27T06:40:39.824Z,144.07
2018-01-27T06:43:07.311Z,153.60
2018-01-27T06:45:34.788Z,153.65
2018-01-27T06:48:02.292Z,143.43
2018-01-27T06:50:29.769Z,150.00
2018-01-27T06:52:57.247Z,146.27
2018-01-27T06:55:24.731Z,121.90
2018-01-27T06:57:52.211Z,129.40
2018-01-27T07:00:19.677Z,135.00
2018-01-27T07:02:47.180Z,126.38
2018-01-27T07:05:14.664Z,128.25
2018-01-27T07:07:42.127Z,130.07
2018-01-27T07:10:09.626Z,112.82
2018-01-27T07:12:37.085Z,123.23
2018-01-27T07:15:04.562Z,109.20
2018-01-27T07:17:32.059Z,118.57
2018-01-27T07:19:59.528Z,108.87
2018-01-27T07:22:26.992Z,109.63
2018-01-27T07:24:54.491Z,106.95
2018-01-27T07:27:21.972Z,111.70
2018-01-27T07:29:49.459Z,134.10
2018-01-27T07:32:16.938Z,127.40
2018-01-27T07:34:44.415Z,127.57
2018-01-27T07:37:11.898Z,146.20
2018-01-27T07:39:39.390Z,134.70
2018-01-27T07:42:06.854Z,126.28
2018-01-27T07:44:34.329Z,138.10
2018-01-27T07:47:01.812Z,143.27
2018-01-27T07:49:29.285Z,128.87
2018-01-27T07:51:56.768Z,133.63
2018-01-27T07:54:24.249Z,124.05
2018-01-27T07:56:51.720Z,129.98
2018-01-27T07:59:19.180Z,133.48
2018-01-27T08:01:46.660Z,142.03
2018-01-27T08:04:14.115Z,136.97
2018-01-27T08:06:41.595Z,129.68
2018-01-27T08:09:09.063Z,147.97
2018-01-27T08:11:36.529Z,127.45
2018-01-27T08:14:04.012Z,122.00
2018-01-27T08:16:31.488Z,114.07
2018-01-27T08:18:58.940Z,113.40
2018-01-27T08:21:26.414Z,124.67
2018-01-27T08:23:53.888Z,125.00
2018-01-27T08:26:21.362Z,126.73
2018-01-27T08:28:48.830Z,147.23
2018-01-27T08:31:16.301Z,155.73
2018-01-27T08:33:43.787Z,165.27
2018-01-27T08:36:11.325Z,140.40
2018-01-27T08:38:38.803Z,153.85
2018-01-27T08:41:06.335Z,154.10
2018-01-27T08:43:33.908Z,151.98
2018-01-27T08:46:01.507Z,135.45
2018-01-27T08:48:29.152Z,140.95
2018-01-27T08:50:56.822Z,155.25
2018-01-27T08:53:24.572Z,147.87
2018-01-27T08:55:52.109Z,142.73
2018-01-27T08:58:19.638Z,145.82
2018-01-27T09:00:48.119Z,149.10
2018-01-27T09:03:15.577Z,135.50
2018-01-27T09:05:43.048Z,153.10
2018-01-27T09:08:10.527Z,147.62
2018-01-27T09:10:37.993Z,145.87
2018-01-27T09:13:05.482Z,145.93
2018-01-27T09:15:32.954Z,149.17
2018-01-27T09:18:00.408Z,142.23
2018-01-27T09:20:27.910Z,111.37
2018-01-27T09:22:55.379Z,131.90
2018-01-27T09:25:22.840Z,129.48
2018-01-27T09:27:50.330Z,109.82
2018-01-27T09:30:17.831Z,142.68
2018-01-27T09:32:45.303Z,134.93
2018-01-27T09:35:12.800Z,142.00
2018-01-27T09:37:40.259Z,130.75
2018-01-27T09:40:07.738Z,141.10
2018-01-27T09:42:35.212Z,124.15
2018-01-27T09:45:02.684Z,108.28
2018-01-27T09:47:30.154Z,127.30
2018-01-27T09:49:57.636Z,121.18
2018-01-27T09:52:25.092Z,121.00
2018-01-27T09:54:52.553Z,115.50
2018-01-27T09:57:20.042Z,117.53
2018-01-27T09:59:47.507Z,98.68
2018-01-27T10:02:14.979Z,114.13
2018-01-27T10:04:42.490Z,111.70
2018-01-27T10:07:09.963Z,111.40
2018-01-27T10:09:37.421Z,105.50
2018-01-27T10:12:04.905Z,115.97
2018-01-27T10:14:32.361Z,112.10
2018-01-27T10:16:59.827Z,108.65
2018-01-27T10:19:27.318Z,96.53
2018-01-27T10:21:54.803Z,123.47
2018-01-27T10:24:22.273Z,108.47
2018-01-27T10:26:49.770Z,102.47
2018-01-27T10:29:17.247Z,99.80
2018-01-27T10:31:44.705Z,89.40
2018-01-27T10:34:12.176Z,88.57
2018-01-27T10:36:39.655Z,102.03
2018-01-27T10:39:07.120Z,99.87
2018-01-27T10:41:34.598Z,100.47
2018-01-27T10:44:02.044Z,85.87
2018-01-27T10:46:29.510Z,89.60
2018-01-27T10:48:57.004Z,86.05
2018-01-27T10:51:24.475Z,90.70
2018-01-27T10:53:51.940Z,74.57
2018-01-27T10:56:19.409Z,89.30
2018-01-27T10:58:46.879Z,90.33
2018-01-27T11:01:14.356Z,99.17
2018-01-27T11:03:41.843Z,86.93
2018-01-27T11:06:09.292Z,87.63
2018-01-27T11:08:36.744Z,87.00
2018-01-27T11:11:04.222Z,80.13
2018-01-27T11:13:31.677Z,85.80
2018-01-27T11:15:59.150Z,89.62
2018-01-27T11:18:26.635Z,81.30
2018-01-27T11:20:54.091Z,88.55
2018-01-27T11:23:21.562Z,92.87
2018-01-27T11:25:49.050Z,87.32
2018-01-27T11:28:16.539Z,87.78
2018-01-27T11:30:44.012Z,90.75
2018-01-27T11:33:11.511Z,87.25
2018-01-27T11:35:38.966Z,88.70
2018-01-27T11:38:06.438Z,78.23
2018-01-27T11:40:33.919Z,81.90
2018-01-27T11:43:01.386Z,79.70
2018-01-27T11:45:28.841Z,74.13
2018-01-27T11:47:56.325Z,79.77
2018-01-27T11:50:23.809Z,67.37
2018-01-27T11:52:51.278Z,73.10
2018-01-27T11:55:18.744Z,62.47
2018-01-27T11:57:46.188Z,81.80
2018-01-27T12:00:13.662Z,67.23
2018-01-27T12:02:41.123Z,84.57
2018-01-27T12:05:08.586Z,76.43
2018-01-27T12:07:36.056Z,65.73
2018-01-27T12:10:03.543Z,79.33
2018-01-27T12:12:30.992Z,61.57
2018-01-27T12:14:58.450Z,66.00
2018-01-27T12:17:25.936Z,64.83
2018-01-27T12:19:53.392Z,65.50
2018-01-27T12:22:20.871Z,62.50
2018-01-27T12:24:48.337Z,58.20
2018-01-27T12:27:15.815Z,57.10
2018-01-27T12:29:43.299Z,73.57
2018-01-27T12:32:10.766Z,80.20
2018-01-27T12:34:38.216Z,85.03
2018-01-27T12:37:05.703Z,85.60
2018-01-27T12:39:33.178Z,81.10
2018-01-27T12:42:00.639Z,74.23
2018-01-27T12:44:28.119Z,94.13
2018-01-27T12:46:55.603Z,89.33
2018-01-27T12:49:23.060Z,75.73
2018-01-27T12:51:50.536Z,88.87
2018-01-27T12:54:18.023Z,77.37
2018-01-27T12:56:45.499Z,69.57
2018-01-27T12:59:12.976Z,72.23
2018-01-27T13:01:40.444Z,76.00
2018-01-27T13:04:07.896Z,76.87
2018-01-27T13:06:35.367Z,81.87
2018-01-27T13:09:02.850Z,73.20
2018-01-27T13:11:30.325Z,77.07
2018-01-27T13:13:57.781Z,67.67
2018-01-27T13:16:25.240Z,73.73
2018-01-27T13:18:52.697Z,68.73
2018-01-27T13:21:20.147Z,76.87
2018-01-27T13:23:47.616Z,63.27
2018-01-27T13:26:15.147Z,78.40
2018-01-27T13:28:42.574Z,70.47
2018-01-27T13:31:10.060Z,69.23
2018-01-27T13:33:37.512Z,69.13
2018-01-27T13:36:04.969Z,70.97
2018-01-27T13:38:32.432Z,71.97
2018-01-27T13:40:59.889Z,62.37
2018-01-27T13:43:27.362Z,66.13
2018-01-27T13:45:54.829Z,77.17
2018-01-27T13:48:23.125Z,69.73
2018-01-27T13:50:50.595Z,67.10
2018-01-27T13:53:18.078Z,87.30
2018-01-27T13:55:45.538Z,75.07
2018-01-27T13:58:13.016Z,68.07
2018-01-27T14:00:40.490Z,76.83
2018-01-27T14:03:07.947Z,79.43
2018-01-27T14:05:35.423Z,70.97
2018-01-27T14:08:02.876Z,76.73
2018-01-27T14:10:30.349Z,70.10
2018-01-27T14:12:57.795Z,77.97
2018-01-27T14:15:25.257Z,74.70
2018-01-27T14:17:52.743Z,70.97
2018-01-27T14:20:20.197Z,81.07
2018-01-27T14:22:47.677Z,65.63
2018-01-27T14:25:15.323Z,80.07
2018-01-27T14:27:42.834Z,71.07
2018-01-27T14:30:10.344Z,68.87
2018-01-27T14:32:37.883Z,79.23
2018-01-27T14:35:05.395Z,82.97
2018-01-27T14:37:32.960Z,78.10
2018-01-27T14:40:00.445Z,73.17
2018-01-27T14:42:27.893Z,80.87
2018-01-27T14:44:55.340Z,85.60
2018-01-27T14:47:22.803Z,76.93
2018-01-27T14:49:50.257Z,77.10
2018-01-27T14:52:17.724Z,91.20
2018-01-27T14:54:45.220Z,82.77
2018-01-27T14:57:12.672Z,89.93
2018-01-27T14:59:40.125Z,92.70
2018-01-27T15:02:07.628Z,80.37
2018-01-27T15:04:35.084Z,85.13
2018-01-27T15:07:02.548Z,78.43
2018-01-27T15:09:30.010Z,82.47
2018-01-27T15:11:57.487Z,87.95
2018-01-27T15:14:24.940Z,84.90
2018-01-27T15:16:52.430Z,87.15
2018-01-27T15:19:19.884Z,98.73
2018-01-27T15:21:47.344Z,95.97
2018-01-27T15:24:14.835Z,100.77
2018-01-27T15:26:42.310Z,77.05
2018-01-27T15:29:09.783Z,88.57
2018-01-27T15:31:37.273Z,87.53
2018-01-27T15:34:04.848Z,81.33
2018-01-27T15:36:32.367Z,88.30
2018-01-27T15:38:59.900Z,106.53
2018-01-27T15:41:27.441Z,84.30
2018-01-27T15:43:54.913Z,86.10
2018-01-27T15:46:22.521Z,101.83
2018-01-27T15:48:50.035Z,101.47
2018-01-27T15:51:17.492Z,83.55
2018-01-27T15:53:44.973Z,104.13
2018-01-27T15:56:12.429Z,99.57
2018-01-27T15:58:39.922Z,104.47
2018-01-27T16:01:07.392Z,100.43
2018-01-27T16:03:34.863Z,99.23
2018-01-27T16:06:02.324Z,92.22
2018-01-27T16:08:29.800Z,95.87
2018-01-27T16:10:57.295Z,103.38
2018-01-27T16:13:24.783Z,87.70
2018-01-27T16:15:52.248Z,89.17
2018-01-27T16:18:19.726Z,83.40
2018-01-27T16:20:47.248Z,89.97
2018-01-27T16:23:14.679Z,94.62
2018-01-27T16:25:42.150Z,85.33
2018-01-27T16:28:09.636Z,85.38
2018-01-27T16:30:37.105Z,95.00
2018-01-27T16:33:04.597Z,99.80
2018-01-27T16:35:32.078Z,87.05
2018-01-27T16:37:59.553Z,94.83
2018-01-27T16:40:27.032Z,91.03
2018-01-27T16:42:54.504Z,81.37
2018-01-27T16:45:21.964Z,96.17
2018-01-27T16:47:49.430Z,99.80
2018-01-27T16:50:16.901Z,113.23
2018-01-27T16:52:44.377Z,99.65
2018-01-27T16:55:11.834Z,113.10
2018-01-27T16:57:39.320Z,109.30
2018-01-27T17:00:06.819Z,110.47
2018-01-27T17:02:34.299Z,99.70
2018-01-27T17:05:01.760Z,108.20
2018-01-27T17:07:29.250Z,101.63
2018-01-27T17:09:56.751Z,119.87
2018-01-27T17:12:24.212Z,101.97
2018-01-27T17:14:51.707Z,96.87
2018-01-27T17:17:19.186Z,99.93
2018-01-27T17:19:46.660Z,115.90
2018-01-27T17:22:14.155Z,108.50
2018-01-27T17:24:41.624Z,125.35
2018-01-27T17:27:09.088Z,119.82
2018-01-27T17:29:36.645Z,125.62
2018-01-27T17:32:04.123Z,128.45
2018-01-27T17:34:31.588Z,118.28
2018-01-27T17:36:59.076Z,136.23
2018-01-27T17:39:26.549Z,117.82
2018-01-27T17:41:54.027Z,115.95
2018-01-27T17:44:21.499Z,121.10
2018-01-27T17:46:48.979Z,121.47
2018-01-27T17:49:16.458Z,120.25
2018-01-27T17:51:43.961Z,122.10
2018-01-27T17:54:11.423Z,109.32
2018-01-27T17:56:38.896Z,130.60
2018-01-27T17:59:06.372Z,131.85
2018-01-27T18:01:33.863Z,122.22
2018-01-27T18:04:01.356Z,122.82
2018-01-27T18:06:28.850Z,120.43
2018-01-27T18:08:56.335Z,112.03
2018-01-27T18:11:23.813Z,129.38
2018-01-27T18:13:51.296Z,126.28
2018-01-27T18:16:18.783Z,132.73
2018-01-27T18:18:46.260Z,116.62
2018-01-27T18:21:13.747Z,123.13
2018-01-27T18:23:41.208Z,126.55
2018-01-27T18:26:08.708Z,130.23
2018-01-27T18:28:36.176Z,123.03
2018-01-27T18:31:03.645Z,115.60
2018-01-27T18:33:31.133Z,118.72
2018-01-27T18:35:58.611Z,109.70
2018-01-27T18:38:26.076Z,122.07
2018-01-27T18:40:53.581Z,110.75
2018-01-27T18:43:21.057Z,120.62
2018-01-27T18:45:48.538Z,118.05
2018-01-27T18:48:17.065Z,113.12
2018-01-27T18:50:45.458Z,112.18
2018-01-27T18:53:12.935Z,115.88
2018-01-27T18:55:40.461Z,116.95
2018-01-27T18:58:07.952Z,120.97
2018-01-27T19:00:35.423Z,112.88
2018-01-27T19:03:02.919Z,130.93
2018-01-27T19:05:30.411Z,123.90
2018-01-27T19:07:57.886Z,112.70
2018-01-27T19:10:25.367Z,111.35
2018-01-27T19:12:52.815Z,113.60
2018-01-27T19:15:20.314Z,117.60
2018-01-27T19:17:47.776Z,122.13
2018-01-27T19:20:15.258Z,128.40
2018-01-27T19:22:42.759Z,115.30
2018-01-27T19:25:10.248Z,105.87
2018-01-27T19:27:37.729Z,109.28
2018-01-27T19:30:05.232Z,111.80
2018-01-27T19:32:32.715Z,129.27
2018-01-27T19:35:00.180Z,117.50
2018-01-27T19:37:27.663Z,99.32
2018-01-27T19:39:55.143Z,122.87
2018-01-27T19:42:22.634Z,123.93
2018-01-27T19:44:50.123Z,117.80
2018-01-27T19:47:17.627Z,118.72
2018-01-27T19:49:45.104Z,112.97
2018-01-27T19:52:12.557Z,111.10
2018-01-27T19:54:39.988Z,122.73
2018-01-27T19:57:07.484Z,116.70
2018-01-27T19:59:34.947Z,112.88
2018-01-27T20:02:02.440Z,126.12
2018-01-27T20:04:29.925Z,116.30
2018-01-27T20:06:57.396Z,116.85
2018-01-27T20:09:24.861Z,129.32
2018-01-27T20:11:52.354Z,111.93
2018-01-27T20:14:19.859Z,105.55
2018-01-27T20:16:47.315Z,107.50
2018-01-27T20:19:14.811Z,114.55
2018-01-27T20:21:42.271Z,118.95
2018-01-27T20:24:09.760Z,122.62
2018-01-27T20:26:37.262Z,118.05
2018-01-27T20:29:04.743Z,127.62
2018-01-27T20:31:32.231Z,112.75
2018-01-27T20:33:59.701Z,121.75
2018-01-27T20:36:27.196Z,126.38
2018-01-27T20:38:54.686Z,122.28
2018-01-27T20:41:22.156Z,125.23
2018-01-27T20:43:49.616Z,110.15
2018-01-27T20:46:17.102Z,119.50
2018-01-27T20:48:44.605Z,120.15
2018-01-27T20:51:12.068Z,136.75
2018-01-27T20:53:39.552Z,136.35
2018-01-27T20:56:07.047Z,114.45
2018-01-27T20:58:34.535Z,129.10
2018-01-27T21:01:02.001Z,116.37
2018-01-27T21:03:29.481Z,137.00
2018-01-27T21:05:56.939Z,154.75
2018-01-27T21:08:24.414Z,142.50
2018-01-27T21:10:51.923Z,142.20
2018-01-27T21:13:19.377Z,141.80
2018-01-27T21:15:46.848Z,133.43
2018-01-27T21:18:14.320Z,129.53
2018-01-27T21:20:41.796Z,127.60
2018-01-27T21:23:09.285Z,132.77
2018-01-27T21:25:36.782Z,132.65
2018-01-27T21:28:04.262Z,112.85
2018-01-27T21:30:31.727Z,139.13
2018-01-27T21:32:59.220Z,141.27
2018-01-27T21:35:26.707Z,148.40
2018-01-27T21:37:54.186Z,148.75
2018-01-27T21:40:21.666Z,147.85
2018-01-27T21:42:49.135Z,150.52
2018-01-27T21:45:16.588Z,144.65
2018-01-27T21:47:44.091Z,156.70
2018-01-27T21:50:11.573Z,152.25
2018-01-27T21:52:39.044Z,145.45
2018-01-27T21:55:06.528Z,138.00
2018-01-27T21:57:34.004Z,171.85
2018-01-27T22:00:01.469Z,147.37
2018-01-27T22:02:28.948Z,157.52
2018-01-27T22:04:56.412Z,156.57
2018-01-27T22:07:23.873Z,132.07
2018-01-27T22:09:51.371Z,148.57
2018-01-27T22:12:18.846Z,154.75
2018-01-27T22:14:46.323Z,160.10
2018-01-27T22:17:13.827Z,171.35
2018-01-27T22:19:41.324Z,156.98
2018-01-27T22:22:08.807Z,166.48
2018-01-27T22:24:36.309Z,186.27
2018-01-27T22:27:03.786Z,200.45
2018-01-27T22:29:31.258Z,224.23
2018-01-27T22:31:58.745Z,202.80
2018-01-27T22:34:26.216Z,227.10
2018-01-27T22:36:53.702Z,217.65
2018-01-27T22:39:21.148Z,227.52
2018-01-27T22:41:48.658Z,204.27
2018-01-27T22:44:16.155Z,223.30
2018-01-27T22:46:43.659Z,239.68
2018-01-27T22:49:11.137Z,280.73
2018-01-27T22:51:38.620Z,300.80
2018-01-27T22:54:06.107Z,289.58
2018-01-27T22:56:33.547Z,298.55
2018-01-27T22:59:01.048Z,226.77
2018-01-27T23:01:28.550Z,341.17
2018-01-27T23:03:56.017Z,304.73
2018-01-27T23:06:23.499Z,379.67
2018-01-27T23:08:50.999Z,285.75
2018-01-27T23:11:18.463Z,476.63
2018-01-27T23:13:45.922Z,606.37
2018-01-27T23:16:13.412Z,239.30
2018-01-27T23:18:40.889Z,470.12
2018-01-27T23:21:08.353Z,385.48
2018-01-27T23:23:35.832Z,202.82
2018-01-27T23:26:03.288Z,224.73
2018-01-27T23:28:30.752Z,275.35
2018-01-27T23:30:58.232Z,289.60
2018-01-27T23:33:25.714Z,235.52
2018-01-27T23:35:53.180Z,404.10
2018-01-27T23:38:20.676Z,433.42
2018-01-27T23:40:48.150Z,644.95
2018-01-27T23:43:15.630Z,697.60
2018-01-27T23:45:43.130Z,718.08
2018-01-27T23:48:10.616Z,356.45
2018-01-27T23:50:38.080Z,478.88
2018-01-27T23:53:05.552Z,474.67
2018-01-27T23:55:33.013Z,210.55
2018-01-27T23:58:00.476Z,273.30
